Time,TemperatureF,DewpointF,PressureIn,WindDirection,WindDirectionDegrees,WindSpeedMPH,WindSpeedGustMPH,Humidity,HourlyPrecipIn,Conditions,Clouds,dailyrainin,SolarRadiationWatts/m^2,SoftwareType,DateUTC
2013-09-15 00:13:00,83.5,77.0,29.96,East,79,2.0,-999.0,80,-99.99,,,0.00,0,weatherlink.com 1.10,2013-09-15 04:13:00,
2013-09-15 00:28:00,83.5,77.0,29.96,East,82,1.0,-999.0,80,-99.99,,,0.00,0,weatherlink.com 1.10,2013-09-15 04:28:00,
2013-09-15 00:43:00,83.5,77.0,29.96,East,85,2.0,-999.0,80,-99.99,,,0.00,0,weatherlink.com 1.10,2013-09-15 04:43:00,
2013-09-15 00:58:00,81.3,77.0,29.96,ESE,116,0.0,-999.0,86,-99.99,,,0.50,0,weatherlink.com 1.10,2013-09-15 04:58:00,
2013-09-15 01:13:00,80.2,76.0,29.97,ESE,116,0.0,-999.0,88,-99.99,,,0.71,0,weatherlink.com 1.10,2013-09-15 05:13:00,
2013-09-15 01:28:00,79.8,77.0,29.96,ESE,116,0.0,-999.0,90,-99.99,,,0.71,0,weatherlink.com 1.10,2013-09-15 05:28:00,
2013-09-15 01:43:00,79.6,77.0,29.95,ESE,116,0.0,-999.0,91,-99.99,,,0.71,0,weatherlink.com 1.10,2013-09-15 05:43:00,
2013-09-15 01:58:00,79.1,77.0,29.96,ESE,117,0.0,-999.0,92,-99.99,,,0.71,0,weatherlink.com 1.10,2013-09-15 05:58:00,
2013-09-15 02:13:00,78.9,77.0,29.94,ESE,117,0.0,-999.0,92,-99.99,,,0.71,0,weatherlink.com 1.10,2013-09-15 06:13:00,
2013-09-15 02:28:00,78.9,77.0,29.93,ESE,116,0.0,-999.0,93,-99.99,,,0.71,0,weatherlink.com 1.10,2013-09-15 06:28:00,
2013-09-15 02:43:00,78.2,76.0,29.94,ENE,76,2.0,-999.0,93,-99.99,,,0.71,0,weatherlink.com 1.10,2013-09-15 06:43:00,
2013-09-15 02:58:00,78.3,76.0,29.92,ENE,62,0.0,-999.0,93,-99.99,,,0.71,0,weatherlink.com 1.10,2013-09-15 06:58:00,
2013-09-15 03:13:00,78.4,76.0,29.93,ENE,62,0.0,-999.0,93,-99.99,,,0.71,0,weatherlink.com 1.10,2013-09-15 07:13:00,
2013-09-15 03:28:00,78.5,76.0,29.93,NE,51,0.0,-999.0,93,-99.99,,,0.71,0,weatherlink.com 1.10,2013-09-15 07:28:00,
2013-09-15 03:43:00,77.6,76.0,29.92,ENE,66,0.0,-999.0,93,-99.99,,,0.71,0,weatherlink.com 1.10,2013-09-15 07:43:00,
2013-09-15 03:58:00,78.0,76.0,29.92,ENE,66,0.0,-999.0,93,-99.99,,,0.71,0,weatherlink.com 1.10,2013-09-15 07:58:00,
2013-09-15 04:13:00,78.4,76.0,29.91,ENE,66,0.0,-999.0,93,-99.99,,,0.71,0,weatherlink.com 1.10,2013-09-15 08:13:00,
2013-09-15 04:29:00,78.7,77.0,29.92,ENE,66,0.0,-999.0,93,-99.99,,,0.71,0,weatherlink.com 1.10,2013-09-15 08:29:00,
2013-09-15 04:44:00,78.9,77.0,29.93,ENE,66,0.0,-999.0,93,-99.99,,,0.71,0,weatherlink.com 1.10,2013-09-15 08:44:00,
2013-09-15 04:59:00,78.9,77.0,29.92,ENE,57,0.0,-999.0,93,-99.99,,,0.71,0,weatherlink.com 1.10,2013-09-15 08:59:00,
2013-09-15 05:14:00,79.0,77.0,29.93,ENE,57,1.0,-999.0,93,-99.99,,,0.71,0,weatherlink.com 1.10,2013-09-15 09:14:00,
2013-09-15 05:29:00,79.0,77.0,29.93,ENE,59,0.0,-999.0,93,-99.99,,,0.71,0,weatherlink.com 1.10,2013-09-15 09:29:00,
2013-09-15 05:44:00,79.2,77.0,29.94,ENE,57,0.0,-999.0,93,-99.99,,,0.71,0,weatherlink.com 1.10,2013-09-15 09:44:00,
2013-09-15 05:59:00,79.3,77.0,29.93,ENE,57,0.0,-999.0,93,-99.99,,,0.71,0,weatherlink.com 1.10,2013-09-15 09:59:00,
2013-09-15 06:14:00,79.3,77.0,29.94,ENE,59,0.0,-999.0,93,-99.99,,,0.71,0,weatherlink.com 1.10,2013-09-15 10:14:00,
2013-09-15 06:29:00,79.3,77.0,29.95,NE,53,0.0,-999.0,93,-99.99,,,0.71,0,weatherlink.com 1.10,2013-09-15 10:29:00,
2013-09-15 06:44:00,79.1,77.0,29.96,ENE,68,1.0,-999.0,93,-99.99,,,0.71,0,weatherlink.com 1.10,2013-09-15 10:44:00,
2013-09-15 06:59:00,79.2,77.0,29.96,ENE,68,0.0,-999.0,93,-99.99,,,0.71,0,weatherlink.com 1.10,2013-09-15 10:59:00,
2013-09-15 07:14:00,79.4,77.0,29.96,ENE,68,0.0,-999.0,92,-99.99,,,0.71,0,weatherlink.com 1.10,2013-09-15 11:14:00,
2013-09-15 07:29:00,79.4,77.0,29.96,ENE,68,0.0,-999.0,92,-99.99,,,0.71,12,weatherlink.com 1.10,2013-09-15 11:29:00,
2013-09-15 07:44:00,79.4,77.0,29.96,ENE,68,0.0,-999.0,92,-99.99,,,0.71,16,weatherlink.com 1.10,2013-09-15 11:44:00,
2013-09-15 07:59:00,79.7,77.0,29.97,ENE,68,0.0,-999.0,92,-99.99,,,0.71,23,weatherlink.com 1.10,2013-09-15 11:59:00,
2013-09-15 08:14:00,80.2,78.0,29.97,ENE,70,0.0,-999.0,92,-99.99,,,0.71,56,weatherlink.com 1.10,2013-09-15 12:14:00,
2013-09-15 08:44:00,80.6,78.0,29.98,NE,54,2.0,-999.0,91,-99.99,,,0.71,19,weatherlink.com 1.10,2013-09-15 12:44:00,
2013-09-15 08:59:00,80.9,78.0,29.99,ENE,62,0.0,-999.0,90,-99.99,,,0.71,18,weatherlink.com 1.10,2013-09-15 12:59:00,
2013-09-15 09:14:00,80.3,77.0,29.99,ESE,110,1.0,-999.0,89,-99.99,,,0.73,30,weatherlink.com 1.10,2013-09-15 13:14:00,
2013-09-15 09:29:00,79.4,76.0,30.00,ENE,65,0.0,-999.0,90,-99.99,,,0.74,44,weatherlink.com 1.10,2013-09-15 13:29:00,
2013-09-15 09:44:00,78.7,76.0,30.01,ENE,67,0.0,-999.0,91,-99.99,,,0.85,51,weatherlink.com 1.10,2013-09-15 13:44:00,
2013-09-15 09:59:00,78.7,76.0,30.00,ENE,69,1.0,-999.0,92,-99.99,,,0.89,142,weatherlink.com 1.10,2013-09-15 13:59:00,
2013-09-15 10:14:00,79.1,77.0,30.01,NE,36,4.0,-999.0,92,-99.99,,,0.89,188,weatherlink.com 1.10,2013-09-15 14:14:00,
2013-09-15 10:29:00,79.2,77.0,30.02,NE,53,0.0,-999.0,92,-99.99,,,0.89,162,weatherlink.com 1.10,2013-09-15 14:29:00,
2013-09-15 10:44:00,80.3,78.0,30.02,ESE,109,2.0,-999.0,91,-99.99,,,0.89,728,weatherlink.com 1.10,2013-09-15 14:44:00,
2013-09-15 10:59:00,83.0,79.0,30.01,ENE,57,10.0,-999.0,86,-99.99,,,0.89,889,weatherlink.com 1.10,2013-09-15 14:59:00,
2013-09-15 11:14:00,83.1,79.0,30.03,ESE,105,4.0,-999.0,86,-99.99,,,0.89,322,weatherlink.com 1.10,2013-09-15 15:14:00,
2013-09-15 11:29:00,81.1,76.0,30.02,ESE,105,11.0,-999.0,85,-99.99,,,0.89,65,weatherlink.com 1.10,2013-09-15 15:29:00,
2013-09-15 11:44:00,79.3,75.0,30.04,East,98,4.0,-999.0,85,-99.99,,,0.89,19,weatherlink.com 1.10,2013-09-15 15:44:00,
2013-09-15 11:59:00,78.5,74.0,30.03,ESE,103,5.0,-999.0,85,-99.99,,,0.89,11,weatherlink.com 1.10,2013-09-15 15:59:00,
2013-09-15 12:14:00,78.2,74.0,30.04,SE,140,0.0,-999.0,87,-99.99,,,0.89,9,weatherlink.com 1.10,2013-09-15 16:14:00,
2013-09-15 12:29:00,76.7,73.0,30.03,ENE,78,0.0,-999.0,88,-99.99,,,0.89,9,weatherlink.com 1.10,2013-09-15 16:29:00,
2013-09-15 12:44:00,76.2,73.0,30.02,East,89,0.0,-999.0,88,-99.99,,,0.89,9,weatherlink.com 1.10,2013-09-15 16:44:00,
2013-09-15 12:59:00,76.2,73.0,30.02,East,89,0.0,-999.0,88,-99.99,,,0.89,11,weatherlink.com 1.10,2013-09-15 16:59:00,
2013-09-15 13:14:00,76.5,73.0,30.03,East,89,0.0,-999.0,89,-99.99,,,0.89,12,weatherlink.com 1.10,2013-09-15 17:14:00,
2013-09-15 13:29:00,76.5,74.0,30.03,East,89,0.0,-999.0,90,-99.99,,,0.89,14,weatherlink.com 1.10,2013-09-15 17:29:00,
2013-09-15 13:44:00,76.6,74.0,30.02,East,89,0.0,-999.0,91,-99.99,,,0.91,18,weatherlink.com 1.10,2013-09-15 17:44:00,
2013-09-15 13:59:00,76.8,74.0,30.01,East,89,1.0,-999.0,91,-99.99,,,0.91,23,weatherlink.com 1.10,2013-09-15 17:59:00,
2013-09-15 14:14:00,76.5,74.0,30.00,East,89,0.0,-999.0,92,-99.99,,,0.92,33,weatherlink.com 1.10,2013-09-15 18:14:00,
2013-09-15 14:29:00,76.6,74.0,29.99,East,89,0.0,-999.0,92,-99.99,,,0.93,49,weatherlink.com 1.10,2013-09-15 18:29:00,
2013-09-15 14:44:00,76.8,74.0,29.99,East,89,0.0,-999.0,92,-99.99,,,0.93,63,weatherlink.com 1.10,2013-09-15 18:44:00,
2013-09-15 14:59:00,77.8,76.0,29.98,East,89,0.0,-999.0,93,-99.99,,,0.93,84,weatherlink.com 1.10,2013-09-15 18:59:00,
2013-09-15 15:14:00,78.6,77.0,29.97,ENE,59,0.0,-999.0,94,-99.99,,,0.93,104,weatherlink.com 1.10,2013-09-15 19:14:00,
2013-09-15 16:31:00,82.2,80.0,29.98,ENE,74,0.0,-999.0,92,-99.99,,,0.93,118,weatherlink.com 1.10,2013-09-15 20:31:00,
2013-09-15 16:44:00,81.8,79.0,29.98,East,79,0.0,-999.0,90,-99.99,,,0.93,135,weatherlink.com 1.10,2013-09-15 20:44:00,
2013-09-15 16:59:00,82.3,79.0,29.97,NE,56,0.0,-999.0,88,-99.99,,,0.93,165,weatherlink.com 1.10,2013-09-15 20:59:00,
2013-09-15 17:14:00,82.8,79.0,29.98,East,94,6.0,-999.0,87,-99.99,,,0.93,162,weatherlink.com 1.10,2013-09-15 21:14:00,
2013-09-15 17:50:00,83.0,79.0,29.99,East,84,0.0,-999.0,87,-99.99,,,0.93,90,weatherlink.com 1.10,2013-09-15 21:50:00,
2013-09-15 18:00:00,82.7,78.0,29.99,ESE,117,2.0,-999.0,86,-99.99,,,0.93,77,weatherlink.com 1.10,2013-09-15 22:00:00,
2013-09-15 18:15:00,82.6,78.0,29.98,SE,142,0.0,-999.0,85,-99.99,,,0.93,70,weatherlink.com 1.10,2013-09-15 22:15:00,
2013-09-15 18:30:00,82.2,77.0,29.99,ESE,115,0.0,-999.0,85,-99.99,,,0.93,60,weatherlink.com 1.10,2013-09-15 22:30:00,
2013-09-15 18:45:00,82.2,77.0,30.00,ESE,115,0.0,-999.0,85,-99.99,,,0.93,42,weatherlink.com 1.10,2013-09-15 22:45:00,
2013-09-15 19:00:00,82.2,77.0,30.01,ESE,116,0.0,-999.0,85,-99.99,,,0.93,25,weatherlink.com 1.10,2013-09-15 23:00:00,
2013-09-15 19:15:00,82.3,77.0,30.02,ESE,116,0.0,-999.0,85,-99.99,,,0.93,5,weatherlink.com 1.10,2013-09-15 23:15:00,
2013-09-15 19:30:00,82.4,78.0,30.02,ESE,105,0.0,-999.0,86,-99.99,,,0.93,0,weatherlink.com 1.10,2013-09-15 23:30:00,
2013-09-15 19:45:00,82.2,78.0,30.02,ESE,105,0.0,-999.0,86,-99.99,,,0.93,0,weatherlink.com 1.10,2013-09-15 23:45:00,
2013-09-15 20:00:00,82.0,77.0,30.01,ESE,103,0.0,-999.0,85,-99.99,,,0.93,0,weatherlink.com 1.10,2013-09-16 00:00:00,
2013-09-15 20:15:00,81.7,75.0,30.02,ENE,67,0.0,-999.0,81,-99.99,,,0.93,0,weatherlink.com 1.10,2013-09-16 00:15:00,
2013-09-15 20:30:00,82.0,75.0,30.02,ENE,67,0.0,-999.0,78,-99.99,,,0.93,0,weatherlink.com 1.10,2013-09-16 00:30:00,
2013-09-15 20:45:00,82.3,75.0,30.01,ENE,61,3.0,-999.0,78,-99.99,,,0.93,0,weatherlink.com 1.10,2013-09-16 00:45:00,
2013-09-15 21:00:00,82.1,75.0,30.02,NE,56,3.0,-999.0,79,-99.99,,,0.93,0,weatherlink.com 1.10,2013-09-16 01:00:00,
2013-09-15 21:15:00,82.2,76.0,30.02,NE,52,8.0,-999.0,81,-99.99,,,0.93,0,weatherlink.com 1.10,2013-09-16 01:15:00,
2013-09-15 21:30:00,82.3,76.0,30.02,ENE,64,5.0,-999.0,82,-99.99,,,0.93,0,weatherlink.com 1.10,2013-09-16 01:30:00,
2013-09-15 21:45:00,82.3,77.0,30.02,ENE,59,0.0,-999.0,83,-99.99,,,0.93,0,weatherlink.com 1.10,2013-09-16 01:45:00,
2013-09-15 22:00:00,82.3,77.0,30.02,East,87,0.0,-999.0,84,-99.99,,,0.93,0,weatherlink.com 1.10,2013-09-16 02:00:00,
2013-09-15 22:15:00,82.2,77.0,30.03,ENE,59,0.0,-999.0,85,-99.99,,,0.93,0,weatherlink.com 1.10,2013-09-16 02:15:00,
2013-09-15 22:30:00,82.1,77.0,30.04,East,98,4.0,-999.0,84,-99.99,,,0.93,0,weatherlink.com 1.10,2013-09-16 02:30:00,
2013-09-15 22:45:00,81.9,76.0,30.03,NE,47,6.0,-999.0,82,-99.99,,,0.93,0,weatherlink.com 1.10,2013-09-16 02:45:00,
2013-09-15 23:00:00,81.9,76.0,30.02,ENE,76,6.0,-999.0,81,-99.99,,,0.93,0,weatherlink.com 1.10,2013-09-16 03:00:00,
2013-09-15 23:15:00,82.1,76.0,30.02,ENE,72,3.0,-999.0,82,-99.99,,,0.93,0,weatherlink.com 1.10,2013-09-16 03:15:00,
2013-09-15 23:30:00,82.0,76.0,30.01,ENE,73,2.0,-999.0,83,-99.99,,,0.93,0,weatherlink.com 1.10,2013-09-16 03:30:00,
2013-09-15 23:45:00,82.0,76.0,30.01,East,92,5.0,-999.0,83,-99.99,,,0.93,0,weatherlink.com 1.10,2013-09-16 03:45:00,